Observation data for Levelland on 08/14/2019      Previous  Date  Next       Current Mesonet Observations  Soil Data  Daily Summary Page  Observations in Plain Language
KLD1 140500Z 05007KT 24/17 A3015 RMK A01 T02440166  RH  065%=      5-min Rain = 0
KLD1 140505Z 05008KT 25/17 A3015 RMK A01 T02450166  RH  065%=      5-min Rain = 0
KLD1 140510Z 06009KT 25/17 A3015 RMK A01 T02480167  RH  063%=      5-min Rain = 0
KLD1 140515Z 06008KT 25/17 A3015 RMK A01 T02470166  RH  064%=      5-min Rain = 0
KLD1 140520Z 06008KT 25/17 A3015 RMK A01 T02460166  RH  064%=      5-min Rain = 0
KLD1 140525Z 05008KT 25/17 A3015 RMK A01 T02460166  RH  064%=      5-min Rain = 0
KLD1 140530Z 06008KT 25/17 A3015 RMK A01 T02460167  RH  065%=      5-min Rain = 0
KLD1 140535Z 06008KT 25/17 A3015 RMK A01 T02450168  RH  065%=      5-min Rain = 0
KLD1 140540Z 06008KT 25/17 A3015 RMK A01 T02450168  RH  065%=      5-min Rain = 0
KLD1 140545Z 07008KT 24/17 A3015 RMK A01 T02440169  RH  066%=      5-min Rain = 0
KLD1 140550Z 09008KT 24/17 A3014 RMK A01 T02430169  RH  066%=      5-min Rain = 0
KLD1 140555Z 10007KT 24/17 A3014 RMK A01 T02440168  RH  066%=      5-min Rain = 0
KLD1 140600Z 09006KT 24/17 A3014 RMK A01 T02410168  RH  067%=      5-min Rain = 0
KLD1 140605Z 10006KT 24/17 A3014 RMK A01 T02370167  RH  068%=      5-min Rain = 0
KLD1 140610Z 11005KT 24/17 A3014 RMK A01 T02350167  RH  069%=      5-min Rain = 0
KLD1 140615Z 11005KT 24/17 A3015 RMK A01 T02350166  RH  069%=      5-min Rain = 0
KLD1 140620Z 09004KT 23/17 A3014 RMK A01 T02320166  RH  070%=      5-min Rain = 0
KLD1 140625Z 07005KT 22/16 A3014 RMK A01 T02240164  RH  072%=      5-min Rain = 0
KLD1 140630Z 08004KT 22/16 A3014 RMK A01 T02200164  RH  074%=      5-min Rain = 0
KLD1 140635Z 09005KT 22/17 A3014 RMK A01 T02200166  RH  075%=      5-min Rain = 0
KLD1 140640Z 09004KT 22/17 A3014 RMK A01 T02220166  RH  074%=      5-min Rain = 0
KLD1 140645Z 10004KT 22/17 A3015 RMK A01 T02220166  RH  074%=      5-min Rain = 0
KLD1 140650Z 10005KT 22/17 A3015 RMK A01 T02230166  RH  074%=      5-min Rain = 0
KLD1 140655Z 08005KT 22/17 A3015 RMK A01 T02200166  RH  075%=      5-min Rain = 0
KLD1 140700Z 06004KT 22/17 A3015 RMK A01 T02160165  RH  076%=      5-min Rain = 0
KLD1 140705Z 05005KT 22/17 A3015 RMK A01 T02160167  RH  077%=      5-min Rain = 0
KLD1 140710Z 05005KT 22/17 A3016 RMK A01 T02190169  RH  077%=      5-min Rain = 0
KLD1 140715Z 04005KT 22/17 A3016 RMK A01 T02180169  RH  077%=      5-min Rain = 0
KLD1 140720Z 05006KT 22/17 A3016 RMK A01 T02190168  RH  077%=      5-min Rain = 0
KLD1 140725Z 06006KT 22/17 A3016 RMK A01 T02200168  RH  076%=      5-min Rain = 0
KLD1 140730Z 07005KT 22/17 A3016 RMK A01 T02220168  RH  075%=      5-min Rain = 0
KLD1 140735Z 07005KT 22/17 A3015 RMK A01 T02210169  RH  076%=      5-min Rain = 0
KLD1 140740Z 07007KT 22/17 A3016 RMK A01 T02210169  RH  076%=      5-min Rain = 0
KLD1 140745Z 06006KT 22/17 A3016 RMK A01 T02230170  RH  076%=      5-min Rain = 0
KLD1 140750Z 06008KT 23/17 A3016 RMK A01 T02250171  RH  075%=      5-min Rain = 0
KLD1 140755Z 06008KT 23/17 A3016 RMK A01 T02280171  RH  074%=      5-min Rain = 0
KLD1 140800Z 07007KT 23/17 A3017 RMK A01 T02280171  RH  074%=      5-min Rain = 0
KLD1 140805Z 05006KT 23/17 A3016 RMK A01 T02260171  RH  074%=      5-min Rain = 0
KLD1 140810Z 05006KT 23/17 A3017 RMK A01 T02250170  RH  075%=      5-min Rain = 0
KLD1 140815Z 05007KT 22/17 A3016 RMK A01 T02230170  RH  075%=      5-min Rain = 0
KLD1 140820Z 05006KT 22/17 A3016 RMK A01 T02220170  RH  076%=      5-min Rain = 0
KLD1 140825Z 06006KT 22/17 A3017 RMK A01 T02210170  RH  076%=      5-min Rain = 0
KLD1 140830Z 06006KT 22/17 A3017 RMK A01 T02200170  RH  077%=      5-min Rain = 0
KLD1 140835Z 06007KT 22/17 A3017 RMK A01 T02200171  RH  078%=      5-min Rain = 0
KLD1 140840Z 06008KT 22/17 A3017 RMK A01 T02220171  RH  077%=      5-min Rain = 0
KLD1 140845Z 07008KT 22/17 A3016 RMK A01 T02230172  RH  077%=      5-min Rain = 0
KLD1 140850Z 07007KT 22/17 A3016 RMK A01 T02220172  RH  077%=      5-min Rain = 0
KLD1 140855Z 07007KT 22/17 A3016 RMK A01 T02220172  RH  077%=      5-min Rain = 0
KLD1 140900Z 06008KT 22/17 A3016 RMK A01 T02220172  RH  077%=      5-min Rain = 0
KLD1 140905Z 06008KT 22/17 A3016 RMK A01 T02210172  RH  078%=      5-min Rain = 0
KLD1 140910Z 05008KT 22/17 A3015 RMK A01 T02200172  RH  078%=      5-min Rain = 0
KLD1 140915Z 06006KT 22/17 A3015 RMK A01 T02200172  RH  078%=      5-min Rain = 0
KLD1 140920Z 06005KT 22/17 A3015 RMK A01 T02180172  RH  079%=      5-min Rain = 0
KLD1 140925Z 06005KT 22/17 A3015 RMK A01 T02150172  RH  080%=      5-min Rain = 0
KLD1 140930Z 06005KT 21/17 A3016 RMK A01 T02140171  RH  081%=      5-min Rain = 0
KLD1 140935Z 06005KT 21/17 A3016 RMK A01 T02130172  RH  081%=      5-min Rain = 0
KLD1 140940Z 06005KT 21/17 A3016 RMK A01 T02120171  RH  081%=      5-min Rain = 0
KLD1 140945Z 05004KT 21/17 A3016 RMK A01 T02110171  RH  082%=      5-min Rain = 0
KLD1 140950Z 04006KT 21/17 A3016 RMK A01 T02100171  RH  082%=      5-min Rain = 0
KLD1 140955Z 04007KT 21/17 A3016 RMK A01 T02100172  RH  083%=      5-min Rain = 0
KLD1 141000Z 04007KT 21/17 A3016 RMK A01 T02100171  RH  083%=      5-min Rain = 0
KLD1 141005Z 04008KT 21/17 A3017 RMK A01 T02110172  RH  082%=      5-min Rain = 0
KLD1 141010Z 04008KT 21/17 A3016 RMK A01 T02100172  RH  083%=      5-min Rain = 0
KLD1 141015Z 04008KT 21/17 A3016 RMK A01 T02120172  RH  082%=      5-min Rain = 0
KLD1 141020Z 04008KT 21/17 A3017 RMK A01 T02130172  RH  082%=      5-min Rain = 0
KLD1 141025Z 05008KT 21/17 A3017 RMK A01 T02130172  RH  081%=      5-min Rain = 0
KLD1 141030Z 05009KT 22/17 A3017 RMK A01 T02150173  RH  081%=      5-min Rain = 0
KLD1 141035Z 04008KT 22/17 A3017 RMK A01 T02190174  RH  079%=      5-min Rain = 0
KLD1 141040Z 04008KT 22/17 A3017 RMK A01 T02200174  RH  079%=      5-min Rain = 0
KLD1 141045Z 04008KT 22/17 A3017 RMK A01 T02210174  RH  079%=      5-min Rain = 0
KLD1 141050Z 04009KT 22/17 A3018 RMK A01 T02220174  RH  078%=      5-min Rain = 0
KLD1 141055Z 04008KT 22/17 A3018 RMK A01 T02230174  RH  078%=      5-min Rain = 0
KLD1 141100Z 04010KT 22/17 A3018 RMK A01 T02230174  RH  078%=      5-min Rain = 0
KLD1 141105Z 04013G19KT 22/17 A3018 RMK A01 T02230174  RH  078%=      5-min Rain = 0
KLD1 141110Z 04014G19KT 22/17 A3018 RMK A01 T02220174  RH  078%=      5-min Rain = 0
KLD1 141115Z 05014KT 22/17 A3019 RMK A01 T02220172  RH  077%=      5-min Rain = 0
KLD1 141120Z 05015KT 22/17 A3019 RMK A01 T02220172  RH  077%=      5-min Rain = 0
KLD1 141125Z 05014KT 22/17 A3019 RMK A01 T02220173  RH  077%=      5-min Rain = 0
KLD1 141130Z 05015G21KT 22/17 A3019 RMK A01 T02210173  RH  078%=      5-min Rain = 0
KLD1 141135Z 05014KT 22/17 A3019 RMK A01 T02200173  RH  078%=      5-min Rain = 0
KLD1 141140Z 05015G21KT 22/17 A302 RMK A01 T02190173  RH  079%=      5-min Rain = 0
KLD1 141145Z 05016G21KT 22/17 A302 RMK A01 T02170172  RH  079%=      5-min Rain = 0
KLD1 141150Z 05016KT 22/17 A302 RMK A01 T02160171  RH  079%=      5-min Rain = 0
KLD1 141155Z 05015G20KT 22/17 A302 RMK A01 T02160170  RH  079%=      5-min Rain = 0
KLD1 141200Z 04014KT 22/17 A3021 RMK A01 T02160170  RH  079%=      5-min Rain = 0
KLD1 141205Z 04013G18KT 22/17 A3021 RMK A01 T02150171  RH  080%=      5-min Rain = 0
KLD1 141210Z 03014KT 21/17 A3021 RMK A01 T02120170  RH  081%=      5-min Rain = 0
KLD1 141215Z 03015G20KT 21/17 A3021 RMK A01 T02100167  RH  080%=      5-min Rain = 0
KLD1 141220Z 04014KT 21/16 A3022 RMK A01 T02090164  RH  079%=      5-min Rain = 0
KLD1 141225Z 04014G19KT 21/16 A3022 RMK A01 T02080162  RH  079%=      5-min Rain = 0
KLD1 141230Z 04014G19KT 21/16 A3022 RMK A01 T02070160  RH  078%=      5-min Rain = 0
KLD1 141235Z 03016G21KT 21/16 A3022 RMK A01 T02060157  RH  077%=      5-min Rain = 0
KLD1 141240Z 03015KT 21/15 A3023 RMK A01 T02060154  RH  076%=      5-min Rain = 0
KLD1 141245Z 03016G21KT 21/15 A3023 RMK A01 T02050150  RH  074%=      5-min Rain = 0
KLD1 141250Z 03017G25KT 20/15 A3023 RMK A01 T02030146  RH  073%=      5-min Rain = 0
KLD1 141255Z 03019G25KT 20/14 A3023 RMK A01 T02010143  RH  072%=      5-min Rain = 0
KLD1 141300Z 03018G23KT 20/14 A3023 RMK A01 T02010142  RH  072%=      5-min Rain = 0
KLD1 141305Z 03018KT 20/14 A3024 RMK A01 T02010142  RH  072%=      5-min Rain = 0
KLD1 141310Z 03017KT 20/14 A3024 RMK A01 T02010142  RH  072%=      5-min Rain = 0
KLD1 141315Z 03017KT 20/14 A3024 RMK A01 T02010142  RH  072%=      5-min Rain = 0
KLD1 141320Z 03016G22KT 20/14 A3024 RMK A01 T02030142  RH  071%=      5-min Rain = 0
KLD1 141325Z 03016G23KT 21/14 A3024 RMK A01 T02050143  RH  071%=      5-min Rain = 0
KLD1 141330Z 03017G23KT 21/14 A3025 RMK A01 T02050143  RH  070%=      5-min Rain = 0
KLD1 141335Z 03014G19KT 21/14 A3025 RMK A01 T02070144  RH  070%=      5-min Rain = 0
KLD1 141340Z 04016KT 21/15 A3026 RMK A01 T02090145  RH  070%=      5-min Rain = 0
KLD1 141345Z 04016KT 21/15 A3026 RMK A01 T02090145  RH  070%=      5-min Rain = 0
KLD1 141350Z 04015G20KT 21/15 A3026 RMK A01 T02110146  RH  070%=      5-min Rain = 0
KLD1 141355Z 04015KT 22/15 A3026 RMK A01 T02150147  RH  068%=      5-min Rain = 0
KLD1 141400Z 03016G23KT 22/15 A3026 RMK A01 T02170148  RH  068%=      5-min Rain = 0
KLD1 141405Z 03016KT 22/15 A3026 RMK A01 T02180148  RH  067%=      5-min Rain = 0
KLD1 141410Z 03015KT 22/15 A3027 RMK A01 T02230150  RH  066%=      5-min Rain = 0
KLD1 141415Z 04015G21KT 23/15 A3027 RMK A01 T02260151  RH  065%=      5-min Rain = 0
KLD1 141420Z 04014KT 23/15 A3027 RMK A01 T02280152  RH  065%=      5-min Rain = 0
KLD1 141425Z 04013KT 23/15 A3026 RMK A01 T02280151  RH  065%=      5-min Rain = 0
KLD1 141430Z 05014KT 23/15 A3026 RMK A01 T02290151  RH  064%=      5-min Rain = 0
KLD1 141435Z 04015KT 23/15 A3027 RMK A01 T02320151  RH  063%=      5-min Rain = 0
KLD1 141440Z 04015KT 23/15 A3027 RMK A01 T02300151  RH  064%=      5-min Rain = 0
KLD1 141445Z 02016KT 23/15 A3028 RMK A01 T02310152  RH  064%=      5-min Rain = 0
KLD1 141450Z 02017KT 23/15 A3028 RMK A01 T02310152  RH  064%=      5-min Rain = 0
KLD1 141455Z 01016KT 23/15 A3028 RMK A01 T02300152  RH  064%=      5-min Rain = 0
KLD1 141500Z 02016KT 23/15 A3028 RMK A01 T02330152  RH  063%=      5-min Rain = 0
KLD1 141505Z 01014KT 24/15 A3028 RMK A01 T02370152  RH  062%=      5-min Rain = 0
KLD1 141510Z 02013KT 24/15 A3027 RMK A01 T02400153  RH  061%=      5-min Rain = 0
KLD1 141515Z 02013G19KT 24/15 A3027 RMK A01 T02440154  RH  060%=      5-min Rain = 0
KLD1 141520Z 02013G18KT 24/15 A3027 RMK A01 T02440154  RH  060%=      5-min Rain = 0
KLD1 141525Z 02014KT 25/16 A3027 RMK A01 T02480155  RH  059%=      5-min Rain = 0
KLD1 141530Z 02013KT 25/16 A3027 RMK A01 T02500156  RH  058%=      5-min Rain = 0
KLD1 141535Z 02012KT 25/16 A3027 RMK A01 T02530158  RH  058%=      5-min Rain = 0
KLD1 141540Z 02012KT 26/16 A3027 RMK A01 T02570156  RH  056%=      5-min Rain = 0
KLD1 141545Z 02013KT 26/16 A3027 RMK A01 T02580156  RH  056%=      5-min Rain = 0
KLD1 141550Z 01012KT 26/16 A3027 RMK A01 T02630158  RH  055%=      5-min Rain = 0
KLD1 141555Z 02010KT 26/15 A3027 RMK A01 T02640154  RH  053%=      5-min Rain = 0
KLD1 141600Z 01011KT 27/16 A3027 RMK A01 T02670155  RH  052%=      5-min Rain = 0
KLD1 141605Z 02010G16KT 27/15 A3026 RMK A01 T02700154  RH  051%=      5-min Rain = 0
KLD1 141610Z 03011KT 27/15 A3025 RMK A01 T02710153  RH  051%=      5-min Rain = 0
KLD1 141615Z 04011G16KT 27/15 A3025 RMK A01 T02740150  RH  049%=      5-min Rain = 0
KLD1 141620Z 04012KT 28/15 A3024 RMK A01 T02750146  RH  047%=      5-min Rain = 0
KLD1 141625Z 06010G15KT 28/15 A3023 RMK A01 T02820149  RH  046%=      5-min Rain = 0
KLD1 141630Z 07011G16KT 28/15 A3022 RMK A01 T02830146  RH  045%=      5-min Rain = 0
KLD1 141635Z 08011G16KT 28/15 A3022 RMK A01 T02840145  RH  045%=      5-min Rain = 0
KLD1 141640Z 07013KT 29/13 A3022 RMK A01 T02900134  RH  040%=      5-min Rain = 0
KLD1 141645Z 09012KT 29/14 A3021 RMK A01 T02920137  RH  040%=      5-min Rain = 0
KLD1 141650Z 08013KT 30/14 A3021 RMK A01 T02960139  RH  040%=      5-min Rain = 0
KLD1 141655Z 09012KT 30/14 A302 RMK A01 T02980135  RH  038%=      5-min Rain = 0
KLD1 141700Z 09013KT 30/14 A302 RMK A01 T02980141  RH  040%=      5-min Rain = 0
KLD1 141705Z 09013KT 30/14 A302 RMK A01 T03000141  RH  040%=      5-min Rain = 0
KLD1 141710Z 08013KT 30/14 A302 RMK A01 T03020135  RH  037%=      5-min Rain = 0
KLD1 141715Z 08013KT 30/14 A302 RMK A01 T03040137  RH  038%=      5-min Rain = 0
KLD1 141720Z 10013G19KT 30/14 A302 RMK A01 T03040137  RH  038%=      5-min Rain = 0
KLD1 141725Z 09013G18KT 31/13 A302 RMK A01 T03060132  RH  036%=      5-min Rain = 0
KLD1 141730Z 10012KT 31/14 A302 RMK A01 T03050135  RH  037%=      5-min Rain = 0
KLD1 141735Z 09013KT 31/13 A302 RMK A01 T03110132  RH  035%=      5-min Rain = 0
KLD1 141740Z 10012KT 31/13 A302 RMK A01 T03130131  RH  034%=      5-min Rain = 0
KLD1 141745Z 10013KT 31/13 A302 RMK A01 T03130128  RH  034%=      5-min Rain = 0
KLD1 141750Z 09013G19KT 32/12 A302 RMK A01 T03170124  RH  032%=      5-min Rain = 0
KLD1 141755Z 11014KT 32/12 A302 RMK A01 T03160120  RH  031%=      5-min Rain = 0
KLD1 141800Z 10012G17KT 32/12 A302 RMK A01 T03160121  RH  031%=      5-min Rain = 0
KLD1 141805Z 11012G17KT 31/12 A302 RMK A01 T03140121  RH  032%=      5-min Rain = 0
KLD1 141810Z 11011G16KT 31/13 A302 RMK A01 T03130125  RH  033%=      5-min Rain = 0
KLD1 141815Z 09011KT 32/12 A302 RMK A01 T03220120  RH  030%=      5-min Rain = 0
KLD1 141820Z 09011KT 33/12 A302 RMK A01 T03260117  RH  029%=      5-min Rain = 0
KLD1 141825Z 09012G17KT 32/11 A302 RMK A01 T03190114  RH  030%=      5-min Rain = 0
KLD1 141830Z 09009KT 33/11 A302 RMK A01 T03250114  RH  029%=      5-min Rain = 0
KLD1 141835Z 09012G19KT 33/11 A302 RMK A01 T03260112  RH  028%=      5-min Rain = 0
KLD1 141840Z 06013G18KT 33/11 A302 RMK A01 T03320106  RH  026%=      5-min Rain = 0
KLD1 141845Z 08011KT 33/11 A302 RMK A01 T03270107  RH  027%=      5-min Rain = 0
KLD1 141850Z 07011G16KT 33/11 A302 RMK A01 T03270111  RH  028%=      5-min Rain = 0
KLD1 141855Z 07011KT 33/11 A302 RMK A01 T03320108  RH  026%=      5-min Rain = 0
KLD1 141900Z 07012KT 33/11 A302 RMK A01 T03320106  RH  026%=      5-min Rain = 0
KLD1 141905Z 05013G19KT 33/10 A302 RMK A01 T03340101  RH  025%=      5-min Rain = 0
KLD1 141910Z 04011KT 33/10 A302 RMK A01 T03340103  RH  025%=      5-min Rain = 0
KLD1 141915Z 05011KT 33/11 A302 RMK A01 T03330105  RH  026%=      5-min Rain = 0
KLD1 141920Z 07011G16KT 33/11 A302 RMK A01 T03320107  RH  026%=      5-min Rain = 0
KLD1 141925Z 05013G19KT 34/10 A302 RMK A01 T03370103  RH  025%=      5-min Rain = 0
KLD1 141930Z 06013G19KT 33/10 A3019 RMK A01 T03330102  RH  025%=      5-min Rain = 0
KLD1 141935Z 06010KT 33/10 A3019 RMK A01 T03330103  RH  025%=      5-min Rain = 0
KLD1 141940Z 06011G18KT 33/10 A3019 RMK A01 T03330103  RH  025%=      5-min Rain = 0
KLD1 141945Z 09012KT 33/11 A3019 RMK A01 T03310106  RH  026%=      5-min Rain = 0
KLD1 141950Z 07012KT 33/11 A3019 RMK A01 T03320106  RH  026%=      5-min Rain = 0
KLD1 141955Z 06011KT 34/10 A3019 RMK A01 T03350103  RH  025%=      5-min Rain = 0
KLD1 142000Z 05009KT 34/10 A3018 RMK A01 T03390103  RH  024%=      5-min Rain = 0
KLD1 142005Z 07010G16KT 34/11 A3018 RMK A01 T03360107  RH  026%=      5-min Rain = 0
KLD1 142010Z 08010G16KT 33/11 A3018 RMK A01 T03310109  RH  027%=      5-min Rain = 0
KLD1 142015Z 07009G14KT 33/11 A3017 RMK A01 T03340109  RH  026%=      5-min Rain = 0
KLD1 142020Z 08009G16KT 34/11 A3017 RMK A01 T03360110  RH  026%=      5-min Rain = 0
KLD1 142025Z 09010G15KT 33/11 A3017 RMK A01 T03340108  RH  026%=      5-min Rain = 0
KLD1 142030Z 08010KT 33/11 A3016 RMK A01 T03330109  RH  026%=      5-min Rain = 0
KLD1 142035Z 07008G14KT 34/11 A3016 RMK A01 T03360112  RH  026%=      5-min Rain = 0
KLD1 142040Z 06010G15KT 33/11 A3016 RMK A01 T03340109  RH  026%=      5-min Rain = 0
KLD1 142045Z 07008KT 33/11 A3015 RMK A01 T03310109  RH  027%=      5-min Rain = 0
KLD1 142050Z 07008KT 33/11 A3015 RMK A01 T03330110  RH  027%=      5-min Rain = 0
KLD1 142055Z 09009KT 33/11 A3014 RMK A01 T03340111  RH  026%=      5-min Rain = 0
KLD1 142100Z 04010KT 33/11 A3014 RMK A01 T03340105  RH  026%=      5-min Rain = 0
KLD1 142105Z 04008KT 34/10 A3014 RMK A01 T03380103  RH  025%=      5-min Rain = 0
KLD1 142110Z 01006KT 34/10 A3014 RMK A01 T03360100  RH  024%=      5-min Rain = 0
KLD1 142115Z 36005KT 33/10 A3013 RMK A01 T03340102  RH  025%=      5-min Rain = 0
KLD1 142120Z 09004KT 33/11 A3013 RMK A01 T03320106  RH  026%=      5-min Rain = 0
KLD1 142125Z 07003G9KT 33/11 A3013 RMK A01 T03340107  RH  026%=      5-min Rain = 0
KLD1 142130Z 07005KT 34/11 A3013 RMK A01 T03360107  RH  026%=      5-min Rain = 0
KLD1 142135Z 09007KT 33/11 A3013 RMK A01 T03340107  RH  026%=      5-min Rain = 0
KLD1 142140Z 09006G11KT 33/11 A3013 RMK A01 T03340107  RH  026%=      5-min Rain = 0
KLD1 142145Z 05005KT 34/11 A3013 RMK A01 T03380110  RH  026%=      5-min Rain = 0
KLD1 142150Z 09003KT 33/11 A3012 RMK A01 T03340109  RH  026%=      5-min Rain = 0
KLD1 142155Z 10005KT 34/11 A3012 RMK A01 T03370108  RH  026%=      5-min Rain = 0
KLD1 142200Z 13004KT 34/11 A3012 RMK A01 T03350109  RH  026%=      5-min Rain = 0
KLD1 142205Z 08005KT 34/11 A3012 RMK A01 T03360107  RH  026%=      5-min Rain = 0
KLD1 142210Z 11005KT 33/11 A3012 RMK A01 T03320107  RH  026%=      5-min Rain = 0
KLD1 142215Z 07005KT 33/11 A3012 RMK A01 T03330107  RH  026%=      5-min Rain = 0
KLD1 142220Z 27001KT 34/10 A3012 RMK A01 T03350104  RH  025%=      5-min Rain = 0
KLD1 142225Z 11004G10KT 34/11 A3011 RMK A01 T03390105  RH  025%=      5-min Rain = 0
KLD1 142230Z 08007G12KT 34/11 A3011 RMK A01 T03370106  RH  025%=      5-min Rain = 0
KLD1 142235Z 11005KT 34/11 A3011 RMK A01 T03350105  RH  025%=      5-min Rain = 0
KLD1 142240Z 11003KT 33/11 A3011 RMK A01 T03340105  RH  026%=      5-min Rain = 0
KLD1 142245Z 11004KT 34/11 A3011 RMK A01 T03360107  RH  026%=      5-min Rain = 0
KLD1 142250Z 13002KT 34/10 A3011 RMK A01 T03360103  RH  025%=      5-min Rain = 0
KLD1 142255Z 08006KT 34/11 A3011 RMK A01 T03370106  RH  025%=      5-min Rain = 0
KLD1 142300Z 02003KT 33/10 A3011 RMK A01 T03340104  RH  025%=      5-min Rain = 0
KLD1 142305Z 09002KT 34/10 A3011 RMK A01 T03350104  RH  025%=      5-min Rain = 0
KLD1 142310Z 12005G10KT 34/11 A3011 RMK A01 T03390107  RH  025%=      5-min Rain = 0
KLD1 142315Z 11008KT 34/11 A3011 RMK A01 T03370108  RH  026%=      5-min Rain = 0
KLD1 142320Z 12006KT 34/11 A3011 RMK A01 T03350106  RH  026%=      5-min Rain = 0
KLD1 142325Z 15005KT 34/11 A3011 RMK A01 T03350110  RH  026%=      5-min Rain = 0
KLD1 142330Z 13005KT 34/11 A3011 RMK A01 T03370113  RH  026%=      5-min Rain = 0
KLD1 142335Z 10006KT 34/11 A3011 RMK A01 T03350105  RH  025%=      5-min Rain = 0
KLD1 142340Z 12006KT 33/11 A301 RMK A01 T03340108  RH  026%=      5-min Rain = 0
KLD1 142345Z 14006KT 34/11 A301 RMK A01 T03350111  RH  026%=      5-min Rain = 0
KLD1 142350Z 12005KT 33/11 A301 RMK A01 T03340114  RH  027%=      5-min Rain = 0
KLD1 142355Z 10005KT 33/10 A301 RMK A01 T03320104  RH  026%=      5-min Rain = 0
KLD1 150000Z 11005KT 33/11 A301 RMK A01 T03330105  RH  026%=      5-min Rain = 0
KLD1 150005Z 08005KT 33/11 A301 RMK A01 T03340107  RH  026%=      5-min Rain = 0
KLD1 150010Z 08005KT 33/10 A301 RMK A01 T03320103  RH  025%=      5-min Rain = 0
KLD1 150015Z 09004KT 33/11 A301 RMK A01 T03310105  RH  026%=      5-min Rain = 0
KLD1 150020Z 13004KT 33/11 A301 RMK A01 T03290112  RH  028%=      5-min Rain = 0
KLD1 150025Z 14005KT 33/12 A3011 RMK A01 T03290120  RH  029%=      5-min Rain = 0
KLD1 150030Z 13005KT 33/12 A3011 RMK A01 T03270121  RH  030%=      5-min Rain = 0
KLD1 150035Z 12006KT 33/11 A3011 RMK A01 T03260114  RH  028%=      5-min Rain = 0
KLD1 150040Z 12005KT 33/11 A3011 RMK A01 T03270107  RH  027%=      5-min Rain = 0
KLD1 150045Z 12004KT 33/12 A3011 RMK A01 T03260116  RH  029%=      5-min Rain = 0
KLD1 150050Z 11004KT 32/12 A3011 RMK A01 T03230121  RH  030%=      5-min Rain = 0
KLD1 150055Z 11003KT 32/12 A3011 RMK A01 T03220120  RH  030%=      5-min Rain = 0
KLD1 150100Z 11003KT 32/13 A3011 RMK A01 T03190129  RH  033%=      5-min Rain = 0
KLD1 150105Z 10002KT 32/13 A3011 RMK A01 T03160131  RH  034%=      5-min Rain = 0
KLD1 150110Z 10004KT 31/13 A3012 RMK A01 T03120132  RH  035%=      5-min Rain = 0
KLD1 150115Z 10004KT 31/14 A3012 RMK A01 T03070136  RH  037%=      5-min Rain = 0
KLD1 150120Z 09004KT 30/14 A3012 RMK A01 T03010136  RH  038%=      5-min Rain = 0
KLD1 150125Z 10004KT 30/13 A3012 RMK A01 T02950134  RH  039%=      5-min Rain = 0
KLD1 150130Z 10004KT 29/13 A3013 RMK A01 T02930132  RH  039%=      5-min Rain = 0
KLD1 150135Z 09004KT 29/13 A3013 RMK A01 T02870134  RH  041%=      5-min Rain = 0
KLD1 150140Z 10004KT 28/14 A3013 RMK A01 T02810137  RH  043%=      5-min Rain = 0
KLD1 150145Z 10004KT 28/14 A3013 RMK A01 T02790137  RH  044%=      5-min Rain = 0
KLD1 150150Z 10004KT 27/14 A3013 RMK A01 T02740139  RH  045%=      5-min Rain = 0
KLD1 150155Z 10005KT 28/13 A3013 RMK A01 T02750132  RH  043%=      5-min Rain = 0
KLD1 150200Z 10005KT 28/13 A3014 RMK A01 T02790126  RH  040%=      5-min Rain = 0
KLD1 150205Z 10004KT 28/13 A3014 RMK A01 T02790126  RH  040%=      5-min Rain = 0
KLD1 150210Z 10004KT 27/13 A3014 RMK A01 T02740130  RH  043%=      5-min Rain = 0
KLD1 150215Z 10003KT 27/13 A3014 RMK A01 T02700132  RH  044%=      5-min Rain = 0
KLD1 150220Z 09004KT 27/13 A3015 RMK A01 T02670134  RH  046%=      5-min Rain = 0
KLD1 150225Z 09004KT 27/13 A3015 RMK A01 T02660132  RH  045%=      5-min Rain = 0
KLD1 150230Z 09004KT 26/13 A3015 RMK A01 T02640133  RH  046%=      5-min Rain = 0
KLD1 150235Z 10005KT 26/13 A3015 RMK A01 T02620131  RH  046%=      5-min Rain = 0
KLD1 150240Z 10005KT 26/13 A3015 RMK A01 T02610130  RH  046%=      5-min Rain = 0
KLD1 150245Z 10005KT 26/13 A3015 RMK A01 T02590130  RH  047%=      5-min Rain = 0
KLD1 150250Z 10005KT 26/13 A3016 RMK A01 T02560130  RH  048%=      5-min Rain = 0
KLD1 150255Z 10005KT 25/13 A3016 RMK A01 T02530129  RH  048%=      5-min Rain = 0
KLD1 150300Z 10005KT 25/13 A3016 RMK A01 T02500130  RH  049%=      5-min Rain = 0
KLD1 150305Z 10005KT 25/13 A3016 RMK A01 T02510127  RH  048%=      5-min Rain = 0
KLD1 150310Z 10004KT 25/13 A3016 RMK A01 T02510126  RH  048%=      5-min Rain = 0
KLD1 150315Z 10003KT 25/13 A3016 RMK A01 T02500127  RH  048%=      5-min Rain = 0
KLD1 150320Z 10003KT 25/13 A3017 RMK A01 T02490128  RH  049%=      5-min Rain = 0
KLD1 150325Z 10005KT 25/13 A3017 RMK A01 T02470129  RH  050%=      5-min Rain = 0
KLD1 150330Z 12006KT 25/13 A3017 RMK A01 T02500127  RH  048%=      5-min Rain = 0
KLD1 150335Z 12007KT 25/13 A3017 RMK A01 T02540127  RH  047%=      5-min Rain = 0
KLD1 150340Z 12006KT 26/13 A3017 RMK A01 T02560128  RH  047%=      5-min Rain = 0
KLD1 150345Z 11006KT 25/13 A3017 RMK A01 T02540130  RH  048%=      5-min Rain = 0
KLD1 150350Z 11006KT 25/13 A3018 RMK A01 T02520132  RH  049%=      5-min Rain = 0
KLD1 150355Z 11006KT 25/13 A3018 RMK A01 T02470132  RH  051%=      5-min Rain = 0
KLD1 150400Z 11006KT 25/13 A3018 RMK A01 T02510130  RH  049%=      5-min Rain = 0
KLD1 150405Z 11007KT 26/13 A3018 RMK A01 T02560129  RH  047%=      5-min Rain = 0
KLD1 150410Z 12006KT 26/13 A3018 RMK A01 T02590130  RH  046%=      5-min Rain = 0
KLD1 150415Z 11007KT 26/13 A3018 RMK A01 T02590131  RH  047%=      5-min Rain = 0
KLD1 150420Z 11007KT 26/13 A3018 RMK A01 T02560132  RH  048%=      5-min Rain = 0
KLD1 150425Z 11008KT 25/13 A3018 RMK A01 T02540133  RH  049%=      5-min Rain = 0
KLD1 150430Z 11008KT 26/13 A3018 RMK A01 T02600134  RH  048%=      5-min Rain = 0
KLD1 150435Z 11008KT 26/14 A3018 RMK A01 T02640135  RH  047%=      5-min Rain = 0
KLD1 150440Z 11008KT 27/14 A3018 RMK A01 T02660137  RH  047%=      5-min Rain = 0
KLD1 150445Z 12008KT 27/14 A3018 RMK A01 T02660139  RH  047%=      5-min Rain = 0
KLD1 150450Z 11008KT 27/14 A3018 RMK A01 T02650140  RH  048%=      5-min Rain = 0
KLD1 150455Z 11008KT 26/14 A3018 RMK A01 T02640140  RH  048%=      5-min Rain = 0

Page generated in 0.0098 seconds.